sensor_id;sensor_type;location;lat;lon;timestamp;pressure;altitude;pressure_sealevel;temperature;humidity
6423;BME280;3244;42.708;23.288;2023-02-03T00:01:56;95273.19;;;5.06;67.93
6423;BME280;3244;42.708;23.288;2023-02-03T00:04:24;95274.97;;;4.95;68.35
6423;BME280;3244;42.708;23.288;2023-02-03T00:06:51;95264.84;;;4.98;68.81
6423;BME280;3244;42.708;23.288;2023-02-03T00:09:18;95276.59;;;4.99;69.12
6423;BME280;3244;42.708;23.288;2023-02-03T00:11:46;95285.97;;;4.85;69.90
6423;BME280;3244;42.708;23.288;2023-02-03T00:14:13;95285.13;;;4.86;70.18
6423;BME280;3244;42.708;23.288;2023-02-03T00:16:39;95293.50;;;4.85;70.22
6423;BME280;3244;42.708;23.288;2023-02-03T00:19:06;95285.16;;;4.76;70.21
6423;BME280;3244;42.708;23.288;2023-02-03T00:21:34;95284.34;;;4.76;70.52
6423;BME280;3244;42.708;23.288;2023-02-03T00:24:01;95291.97;;;4.68;70.89
6423;BME280;3244;42.708;23.288;2023-02-03T00:26:28;95281.00;;;4.72;70.31
6423;BME280;3244;42.708;23.288;2023-02-03T00:28:54;95296.84;;;4.90;70.39
6423;BME280;3244;42.708;23.288;2023-02-03T00:31:23;95290.19;;;4.79;71.23
6423;BME280;3244;42.708;23.288;2023-02-03T00:33:53;95275.22;;;4.61;71.29
6423;BME280;3244;42.708;23.288;2023-02-03T00:36:20;95296.91;;;4.77;71.98
6423;BME280;3244;42.708;23.288;2023-02-03T00:38:48;95311.16;;;4.83;71.71
6423;BME280;3244;42.708;23.288;2023-02-03T00:41:15;95306.19;;;4.72;71.97
6423;BME280;3244;42.708;23.288;2023-02-03T00:43:42;95299.50;;;4.70;73.13
6423;BME280;3244;42.708;23.288;2023-02-03T00:46:09;95311.28;;;4.63;73.15
6423;BME280;3244;42.708;23.288;2023-02-03T00:48:36;95308.78;;;4.63;72.81
6423;BME280;3244;42.708;23.288;2023-02-03T00:51:03;95307.13;;;4.58;73.61
6423;BME280;3244;42.708;23.288;2023-02-03T00:53:29;95306.31;;;4.56;73.67
6423;BME280;3244;42.708;23.288;2023-02-03T00:55:57;95312.09;;;4.68;72.85
6423;BME280;3244;42.708;23.288;2023-02-03T00:58:24;95313.78;;;4.69;73.36
6423;BME280;3244;42.708;23.288;2023-02-03T01:00:54;95317.06;;;4.76;72.91
6423;BME280;3244;42.708;23.288;2023-02-03T01:03:21;95321.25;;;4.75;72.70
6423;BME280;3244;42.708;23.288;2023-02-03T01:05:48;95328.78;;;4.82;72.68
6423;BME280;3244;42.708;23.288;2023-02-03T01:08:15;95327.16;;;4.71;72.95
6423;BME280;3244;42.708;23.288;2023-02-03T01:10:41;95335.63;;;4.64;73.41
6423;BME280;3244;42.708;23.288;2023-02-03T01:13:09;95327.25;;;4.59;73.23
6423;BME280;3244;42.708;23.288;2023-02-03T01:15:36;95332.31;;;4.53;73.45
6423;BME280;3244;42.708;23.288;2023-02-03T01:18:03;95328.13;;;4.52;73.09
6423;BME280;3244;42.708;23.288;2023-02-03T01:20:30;95318.91;;;4.50;72.92
6423;BME280;3244;42.708;23.288;2023-02-03T01:22:56;95335.75;;;4.41;73.65
6423;BME280;3244;42.708;23.288;2023-02-03T01:25:23;95334.94;;;4.36;73.46
6423;BME280;3244;42.708;23.288;2023-02-03T01:27:50;95332.41;;;4.38;73.35
6423;BME280;3244;42.708;23.288;2023-02-03T01:30:18;95324.03;;;4.39;73.46
6423;BME280;3244;42.708;23.288;2023-02-03T01:32:45;95308.19;;;4.20;73.55
6423;BME280;3244;42.708;23.288;2023-02-03T01:35:12;95321.59;;;4.22;73.49
6423;BME280;3244;42.708;23.288;2023-02-03T01:37:38;95319.94;;;4.18;73.57
6423;BME280;3244;42.708;23.288;2023-02-03T01:40:07;95332.56;;;4.10;73.77
6423;BME280;3244;42.708;23.288;2023-02-03T01:42:33;95336.72;;;4.19;73.34
6423;BME280;3244;42.708;23.288;2023-02-03T01:45:00;95337.56;;;4.14;73.23
6423;BME280;3244;42.708;23.288;2023-02-03T01:47:33;95351.00;;;4.06;73.66
6423;BME280;3244;42.708;23.288;2023-02-03T01:50:08;95345.97;;;4.13;73.36
6423;BME280;3244;42.708;23.288;2023-02-03T01:52:38;95341.75;;;4.15;74.08
6423;BME280;3244;42.708;23.288;2023-02-03T01:55:09;95348.44;;;4.20;73.13
6423;BME280;3244;42.708;23.288;2023-02-03T01:57:39;95350.88;;;4.32;72.38
6423;BME280;3244;42.708;23.288;2023-02-03T02:00:10;95345.03;;;4.29;72.56
6423;BME280;3244;42.708;23.288;2023-02-03T02:02:38;95345.00;;;4.36;71.66
6423;BME280;3244;42.708;23.288;2023-02-03T02:05:09;95337.50;;;4.29;72.21
6423;BME280;3244;42.708;23.288;2023-02-03T02:07:40;95346.69;;;4.34;72.03
6423;BME280;3244;42.708;23.288;2023-02-03T02:10:08;95356.75;;;4.34;72.06
6423;BME280;3244;42.708;23.288;2023-02-03T02:12:35;95354.28;;;4.21;72.40
6423;BME280;3244;42.708;23.288;2023-02-03T02:15:03;95354.28;;;4.21;72.21
6423;BME280;3244;42.708;23.288;2023-02-03T02:17:40;95345.91;;;4.22;72.48
6423;BME280;3244;42.708;23.288;2023-02-03T02:20:48;95349.31;;;4.18;72.14
6423;BME280;3244;42.708;23.288;2023-02-03T02:26:47;95349.22;;;4.30;71.68
6423;BME280;3244;42.708;23.288;2023-02-03T02:32:19;95364.41;;;4.15;72.17
6423;BME280;3244;42.708;23.288;2023-02-03T02:34:56;95361.88;;;4.12;72.08
6423;BME280;3244;42.708;23.288;2023-02-03T02:37:34;95356.03;;;4.02;72.46
6423;BME280;3244;42.708;23.288;2023-02-03T02:40:09;95347.63;;;4.10;72.53
6423;BME280;3244;42.708;23.288;2023-02-03T02:42:50;95355.19;;;4.07;72.35
6423;BME280;3244;42.708;23.288;2023-02-03T02:45:22;95349.34;;;4.02;72.33
6423;BME280;3244;42.708;23.288;2023-02-03T02:47:53;95364.41;;;4.12;72.02
6423;BME280;3244;42.708;23.288;2023-02-03T02:50:25;95366.94;;;4.07;72.56
6423;BME280;3244;42.708;23.288;2023-02-03T02:52:56;95382.03;;;4.08;72.34
6423;BME280;3244;42.708;23.288;2023-02-03T02:55:27;95398.78;;;4.08;72.66
6423;BME280;3244;42.708;23.288;2023-02-03T02:57:59;95385.38;;;4.06;72.49
6423;BME280;3244;42.708;23.288;2023-02-03T03:00:29;95394.59;;;4.02;72.20
6423;BME280;3244;42.708;23.288;2023-02-03T03:03:09;95392.09;;;4.01;71.50
6423;BME280;3244;42.708;23.288;2023-02-03T03:05:38;95392.09;;;4.02;71.69
6423;BME280;3244;42.708;23.288;2023-02-03T03:08:07;95395.44;;;3.97;71.07
6423;BME280;3244;42.708;23.288;2023-02-03T03:10:36;95386.22;;;3.97;70.74
6423;BME280;3244;42.708;23.288;2023-02-03T03:13:07;95392.09;;;4.04;70.87
6423;BME280;3244;42.708;23.288;2023-02-03T03:15:36;95403.81;;;4.09;70.35
6423;BME280;3244;42.708;23.288;2023-02-03T03:18:09;95408.00;;;4.07;70.63
6423;BME280;3244;42.708;23.288;2023-02-03T03:20:40;95407.19;;;4.01;70.71
6423;BME280;3244;42.708;23.288;2023-02-03T03:23:12;95406.34;;;4.09;70.22
6423;BME280;3244;42.708;23.288;2023-02-03T03:25:43;95414.72;;;3.99;70.24
6423;BME280;3244;42.708;23.288;2023-02-03T03:28:15;95408.91;;;3.96;70.84
6423;BME280;3244;42.708;23.288;2023-02-03T03:30:48;95412.22;;;3.98;70.18
6423;BME280;3244;42.708;23.288;2023-02-03T03:33:17;95403.88;;;3.82;70.65
6423;BME280;3244;42.708;23.288;2023-02-03T03:35:48;95404.72;;;3.78;70.71
6423;BME280;3244;42.708;23.288;2023-02-03T03:38:19;95408.06;;;3.79;70.20
6423;BME280;3244;42.708;23.288;2023-02-03T03:40:50;95401.41;;;3.70;70.34
6423;BME280;3244;42.708;23.288;2023-02-03T03:43:23;95409.78;;;3.57;70.35
6423;BME280;3244;42.708;23.288;2023-02-03T03:45:56;95413.13;;;3.62;70.88
6423;BME280;3244;42.708;23.288;2023-02-03T03:48:28;95408.94;;;3.61;70.08
6423;BME280;3244;42.708;23.288;2023-02-03T03:51:00;95413.13;;;3.62;70.65
6423;BME280;3244;42.708;23.288;2023-02-03T03:53:29;95401.41;;;3.52;70.05
6423;BME280;3244;42.708;23.288;2023-02-03T03:55:59;95404.78;;;3.41;70.84
6423;BME280;3244;42.708;23.288;2023-02-03T03:58:29;95402.28;;;3.45;71.43
6423;BME280;3244;42.708;23.288;2023-02-03T04:01:00;95398.09;;;3.45;71.26
6423;BME280;3244;42.708;23.288;2023-02-03T04:03:32;95391.38;;;3.32;70.61
6423;BME280;3244;42.708;23.288;2023-02-03T04:06:00;95403.94;;;3.32;71.16
6423;BME280;3244;42.708;23.288;2023-02-03T04:08:27;95401.44;;;3.12;72.41
6423;BME280;3244;42.708;23.288;2023-02-03T04:10:54;95412.31;;;3.28;72.38
6423;BME280;3244;42.708;23.288;2023-02-03T04:13:21;95407.28;;;3.11;72.30
6423;BME280;3244;42.708;23.288;2023-02-03T04:15:47;95412.31;;;3.13;72.08
6423;BME280;3244;42.708;23.288;2023-02-03T04:18:15;95417.34;;;3.17;72.13
6423;BME280;3244;42.708;23.288;2023-02-03T04:20:43;95405.63;;;3.07;72.16
6423;BME280;3244;42.708;23.288;2023-02-03T04:23:10;95420.69;;;3.07;73.11
6423;BME280;3244;42.708;23.288;2023-02-03T04:25:36;95424.88;;;3.06;73.04
6423;BME280;3244;42.708;23.288;2023-02-03T04:28:03;95435.75;;;2.93;73.40
6423;BME280;3244;42.708;23.288;2023-02-03T04:30:31;95435.75;;;2.93;72.78
6423;BME280;3244;42.708;23.288;2023-02-03T04:32:58;95440.75;;;3.02;72.61
6423;BME280;3244;42.708;23.288;2023-02-03T04:35:25;95438.25;;;3.01;72.87
6423;BME280;3244;42.708;23.288;2023-02-03T04:37:53;95440.75;;;3.04;72.33
6423;BME280;3244;42.708;23.288;2023-02-03T04:40:20;95436.59;;;3.09;72.47
6423;BME280;3244;42.708;23.288;2023-02-03T04:42:46;95444.94;;;3.08;72.54
6423;BME280;3244;42.708;23.288;2023-02-03T04:45:13;95434.91;;;3.14;71.65
6423;BME280;3244;42.708;23.288;2023-02-03T04:47:40;95438.25;;;3.07;72.61
6423;BME280;3244;42.708;23.288;2023-02-03T04:50:07;95455.00;;;3.05;72.44
6423;BME280;3244;42.708;23.288;2023-02-03T04:52:34;95455.00;;;3.11;73.06
6423;BME280;3244;42.708;23.288;2023-02-03T04:55:02;95462.56;;;3.19;72.06
6423;BME280;3244;42.708;23.288;2023-02-03T04:57:30;95458.38;;;3.18;72.23
6423;BME280;3244;42.708;23.288;2023-02-03T04:59:56;95457.50;;;3.11;72.44
6423;BME280;3244;42.708;23.288;2023-02-03T05:02:23;95461.69;;;3.09;72.71
6423;BME280;3244;42.708;23.288;2023-02-03T05:04:50;95453.31;;;3.07;72.29
6423;BME280;3244;42.708;23.288;2023-02-03T05:07:17;95470.06;;;3.06;72.74
6423;BME280;3244;42.708;23.288;2023-02-03T05:09:44;95459.19;;;3.06;72.54
6423;BME280;3244;42.708;23.288;2023-02-03T05:12:12;95477.56;;;2.99;72.35
6423;BME280;3244;42.708;23.288;2023-02-03T05:14:38;95480.09;;;3.02;72.00
6423;BME280;3244;42.708;23.288;2023-02-03T05:17:05;95483.44;;;3.04;72.14
6423;BME280;3244;42.708;23.288;2023-02-03T05:19:32;95491.81;;;3.03;72.00
6423;BME280;3244;42.708;23.288;2023-02-03T05:21:59;95501.84;;;3.06;72.52
6423;BME280;3244;42.708;23.288;2023-02-03T05:24:25;95511.94;;;3.18;72.57
6423;BME280;3244;42.708;23.288;2023-02-03T05:26:52;95512.78;;;3.20;72.19
6423;BME280;3244;42.708;23.288;2023-02-03T05:29:20;95516.97;;;3.29;71.93
6423;BME280;3244;42.708;23.288;2023-02-03T05:31:47;95515.31;;;3.29;71.36
6423;BME280;3244;42.708;23.288;2023-02-03T05:34:14;95522.00;;;3.30;71.03
6423;BME280;3244;42.708;23.288;2023-02-03T05:36:40;95517.81;;;3.29;71.38
6423;BME280;3244;42.708;23.288;2023-02-03T05:39:07;95517.81;;;3.35;71.11
6423;BME280;3244;42.708;23.288;2023-02-03T05:41:34;95520.34;;;3.35;71.51
6423;BME280;3244;42.708;23.288;2023-02-03T05:44:20;95519.50;;;3.38;71.14
6423;BME280;3244;42.708;23.288;2023-02-03T05:46:47;95523.72;;;3.44;70.59
6423;BME280;3244;42.708;23.288;2023-02-03T05:49:15;95513.66;;;3.44;71.27
6423;BME280;3244;42.708;23.288;2023-02-03T05:51:42;95514.47;;;3.33;71.37
6423;BME280;3244;42.708;23.288;2023-02-03T05:54:09;95521.19;;;3.34;70.91
6423;BME280;3244;42.708;23.288;2023-02-03T05:56:35;95514.44;;;3.26;71.10
6423;BME280;3244;42.708;23.288;2023-02-03T05:59:03;95520.31;;;3.26;70.88
6423;BME280;3244;42.708;23.288;2023-02-03T06:01:31;95522.84;;;3.29;71.16
6423;BME280;3244;42.708;23.288;2023-02-03T06:03:58;95522.88;;;3.40;71.09
6423;BME280;3244;42.708;23.288;2023-02-03T06:06:25;95527.06;;;3.58;70.11
6423;BME280;3244;42.708;23.288;2023-02-03T06:08:57;95532.09;;;3.64;69.20
6423;BME280;3244;42.708;23.288;2023-02-03T06:11:24;95532.09;;;3.64;69.44
6423;BME280;3244;42.708;23.288;2023-02-03T06:13:53;95530.41;;;3.61;69.25
6423;BME280;3244;42.708;23.288;2023-02-03T06:16:20;95536.28;;;3.89;69.18
6423;BME280;3244;42.708;23.288;2023-02-03T06:18:50;95536.81;;;5.07;65.58
6423;BME280;3244;42.708;23.288;2023-02-03T06:21:17;95529.81;;;6.57;59.80
6423;BME280;3244;42.708;23.288;2023-02-03T06:23:44;95527.31;;;7.83;56.51
6423;BME280;3244;42.708;23.288;2023-02-03T06:26:11;95535.63;;;8.88;53.35
6423;BME280;3244;42.708;23.288;2023-02-03T06:28:38;95532.13;;;10.09;50.10
6423;BME280;3244;42.708;23.288;2023-02-03T06:31:05;95519.59;;;11.01;47.17
6423;BME280;3244;42.708;23.288;2023-02-03T06:33:32;95523.78;;;11.33;45.48
6423;BME280;3244;42.708;23.288;2023-02-03T06:36:00;95523.59;;;11.95;44.16
6423;BME280;3244;42.708;23.288;2023-02-03T06:38:27;95528.50;;;11.73;43.87
6423;BME280;3244;42.708;23.288;2023-02-03T06:40:54;95533.63;;;11.14;45.47
6423;BME280;3244;42.708;23.288;2023-02-03T06:43:20;95534.78;;;10.71;45.68
6423;BME280;3244;42.708;23.288;2023-02-03T06:45:47;95553.81;;;9.87;47.61
6423;BME280;3244;42.708;23.288;2023-02-03T06:48:14;95565.66;;;8.63;50.65
6423;BME280;3244;42.708;23.288;2023-02-03T06:50:42;95555.53;;;7.57;54.12
6423;BME280;3244;42.708;23.288;2023-02-03T06:53:11;95561.53;;;6.82;56.39
6423;BME280;3244;42.708;23.288;2023-02-03T06:55:38;95575.53;;;6.27;58.18
6423;BME280;3244;42.708;23.288;2023-02-03T06:58:04;95579.13;;;6.00;59.70
6423;BME280;3244;42.708;23.288;2023-02-03T07:00:31;95580.00;;;5.96;59.58
6423;BME280;3244;42.708;23.288;2023-02-03T07:02:58;95589.19;;;6.01;59.48
6423;BME280;3244;42.708;23.288;2023-02-03T07:05:26;95574.59;;;7.78;57.37
6423;BME280;3244;42.708;23.288;2023-02-03T07:07:53;95565.81;;;10.84;48.78
6423;BME280;3244;42.708;23.288;2023-02-03T07:10:21;95566.66;;;13.05;43.65
6423;BME280;3244;42.708;23.288;2023-02-03T07:12:48;95562.28;;;14.84;39.11
6423;BME280;3244;42.708;23.288;2023-02-03T07:15:16;95562.09;;;15.47;37.23
6423;BME280;3244;42.708;23.288;2023-02-03T07:17:43;95567.75;;;15.74;36.21
6423;BME280;3244;42.708;23.288;2023-02-03T07:20:13;95567.94;;;15.11;37.12
6423;BME280;3244;42.708;23.288;2023-02-03T07:22:39;95574.34;;;14.60;37.36
6423;BME280;3244;42.708;23.288;2023-02-03T07:25:08;95581.06;;;13.99;38.51
6423;BME280;3244;42.708;23.288;2023-02-03T07:27:36;95579.66;;;14.12;37.81
6423;BME280;3244;42.708;23.288;2023-02-03T07:30:03;95577.22;;;15.14;36.83
6423;BME280;3244;42.708;23.288;2023-02-03T07:32:30;95571.56;;;16.20;34.51
6423;BME280;3244;42.708;23.288;2023-02-03T07:34:57;95585.09;;;16.41;33.37
6423;BME280;3244;42.708;23.288;2023-02-03T07:37:25;95588.13;;;14.98;35.20
6423;BME280;3244;42.708;23.288;2023-02-03T07:39:52;95588.72;;;14.21;36.89
6423;BME280;3244;42.708;23.288;2023-02-03T07:42:19;95597.75;;;14.29;36.86
6423;BME280;3244;42.708;23.288;2023-02-03T07:44:47;95600.34;;;14.72;36.03
6423;BME280;3244;42.708;23.288;2023-02-03T07:47:14;95591.38;;;15.80;34.64
6423;BME280;3244;42.708;23.288;2023-02-03T07:49:40;95595.63;;;17.38;31.93
6423;BME280;3244;42.708;23.288;2023-02-03T07:52:07;95586.13;;;18.20;30.31
6423;BME280;3244;42.708;23.288;2023-02-03T07:54:34;95586.13;;;18.20;29.06
6423;BME280;3244;42.708;23.288;2023-02-03T07:57:01;95585.97;;;18.23;29.95
6423;BME280;3244;42.708;23.288;2023-02-03T07:59:28;95586.44;;;17.83;29.90
6423;BME280;3244;42.708;23.288;2023-02-03T08:01:56;95598.84;;;17.09;31.16
6423;BME280;3244;42.708;23.288;2023-02-03T08:04:22;95595.06;;;16.29;32.44
6423;BME280;3244;42.708;23.288;2023-02-03T08:06:49;95601.13;;;15.91;32.64
6423;BME280;3244;42.708;23.288;2023-02-03T08:09:16;95603.91;;;15.68;33.26
6423;BME280;3244;42.708;23.288;2023-02-03T08:11:43;95604.94;;;15.04;33.83
6423;BME280;3244;42.708;23.288;2023-02-03T08:14:10;95601.03;;;14.55;35.03
6423;BME280;3244;42.708;23.288;2023-02-03T08:16:36;95591.25;;;13.77;36.14
6423;BME280;3244;42.708;23.288;2023-02-03T08:19:04;95601.38;;;13.57;37.00
6423;BME280;3244;42.708;23.288;2023-02-03T08:21:31;95592.16;;;13.98;36.87
6423;BME280;3244;42.708;23.288;2023-02-03T08:23:58;95583.50;;;14.86;35.46
6423;BME280;3244;42.708;23.288;2023-02-03T08:26:25;95575.91;;;15.63;33.48
6423;BME280;3244;42.708;23.288;2023-02-03T08:28:51;95581.13;;;15.80;33.28
6423;BME280;3244;42.708;23.288;2023-02-03T08:31:18;95583.75;;;16.15;32.36
6423;BME280;3244;42.708;23.288;2023-02-03T08:33:45;95587.69;;;16.58;31.96
6423;BME280;3244;42.708;23.288;2023-02-03T08:36:13;95584.66;;;17.19;30.90
6423;BME280;3244;42.708;23.288;2023-02-03T08:38:40;95593.00;;;17.07;30.87
6423;BME280;3244;42.708;23.288;2023-02-03T08:41:08;95597.53;;;16.84;30.14
6423;BME280;3244;42.708;23.288;2023-02-03T08:43:34;95608.72;;;16.11;30.94
6423;BME280;3244;42.708;23.288;2023-02-03T08:46:02;95621.59;;;14.52;33.29
6423;BME280;3244;42.708;23.288;2023-02-03T08:48:29;95616.19;;;13.71;34.93
6423;BME280;3244;42.708;23.288;2023-02-03T08:50:56;95631.56;;;12.71;36.61
6423;BME280;3244;42.708;23.288;2023-02-03T08:53:24;95630.28;;;11.45;39.53
6423;BME280;3244;42.708;23.288;2023-02-03T08:55:51;95624.50;;;10.76;41.84
6423;BME280;3244;42.708;23.288;2023-02-03T08:58:18;95625.41;;;10.74;42.00
6423;BME280;3244;42.708;23.288;2023-02-03T09:00:44;95631.19;;;10.80;43.24
6423;BME280;3244;42.708;23.288;2023-02-03T09:03:14;95632.22;;;11.06;42.62
6423;BME280;3244;42.708;23.288;2023-02-03T09:05:40;95628.44;;;11.19;42.14
6423;BME280;3244;42.708;23.288;2023-02-03T09:08:07;95628.72;;;11.39;41.75
6423;BME280;3244;42.708;23.288;2023-02-03T09:10:36;95626.94;;;11.43;42.63
6423;BME280;3244;42.708;23.288;2023-02-03T09:13:03;95623.69;;;11.67;42.88
6423;BME280;3244;42.708;23.288;2023-02-03T09:15:29;95606.22;;;11.56;42.25
6423;BME280;3244;42.708;23.288;2023-02-03T09:17:56;95613.22;;;11.17;42.87
6423;BME280;3244;42.708;23.288;2023-02-03T09:20:23;95618.75;;;10.68;43.66
6423;BME280;3244;42.708;23.288;2023-02-03T09:22:50;95616.88;;;10.41;44.41
6423;BME280;3244;42.708;23.288;2023-02-03T09:25:19;95626.75;;;9.79;45.28
6423;BME280;3244;42.708;23.288;2023-02-03T09:27:47;95627.28;;;9.54;46.12
6423;BME280;3244;42.708;23.288;2023-02-03T09:30:14;95634.50;;;9.31;47.20
6423;BME280;3244;42.708;23.288;2023-02-03T09:32:41;95621.41;;;9.09;47.68
6423;BME280;3244;42.708;23.288;2023-02-03T09:35:07;95630.78;;;8.58;48.87
6423;BME280;3244;42.708;23.288;2023-02-03T09:37:34;95649.06;;;8.75;49.76
6423;BME280;3244;42.708;23.288;2023-02-03T09:40:01;95636.66;;;9.08;47.86
6423;BME280;3244;42.708;23.288;2023-02-03T09:42:49;95622.06;;;9.61;47.32
6423;BME280;3244;42.708;23.288;2023-02-03T09:45:23;95606.09;;;9.94;44.90
6423;BME280;3244;42.708;23.288;2023-02-03T09:47:52;95624.97;;;9.84;44.76
6423;BME280;3244;42.708;23.288;2023-02-03T09:50:21;95616.59;;;9.79;44.27
6423;BME280;3244;42.708;23.288;2023-02-03T09:52:49;95618.47;;;9.71;44.44
6423;BME280;3244;42.708;23.288;2023-02-03T09:55:26;95607.69;;;9.61;45.00
6423;BME280;3244;42.708;23.288;2023-02-03T09:58:01;95608.69;;;9.52;44.39
6423;BME280;3244;42.708;23.288;2023-02-03T10:00:32;95617.78;;;9.21;44.43
6423;BME280;3244;42.708;23.288;2023-02-03T10:03:06;95613.31;;;8.91;45.06
6423;BME280;3244;42.708;23.288;2023-02-03T10:05:50;95604.34;;;8.71;45.77
6423;BME280;3244;42.708;23.288;2023-02-03T10:08:27;95607.06;;;8.62;46.50
6423;BME280;3244;42.708;23.288;2023-02-03T10:11:02;95591.56;;;8.77;46.04
6423;BME280;3244;42.708;23.288;2023-02-03T10:13:45;95580.22;;;8.97;46.64
6423;BME280;3244;42.708;23.288;2023-02-03T10:16:30;95582.72;;;9.00;45.42
6423;BME280;3244;42.708;23.288;2023-02-03T10:19:03;95588.16;;;9.23;46.76
6423;BME280;3244;42.708;23.288;2023-02-03T10:21:36;95585.56;;;9.26;46.01
6423;BME280;3244;42.708;23.288;2023-02-03T10:24:09;95592.19;;;9.33;45.88
6423;BME280;3244;42.708;23.288;2023-02-03T10:26:39;95559.00;;;9.42;44.75
6423;BME280;3244;42.708;23.288;2023-02-03T10:29:17;95575.66;;;9.55;43.91
6423;BME280;3244;42.708;23.288;2023-02-03T10:31:44;95571.25;;;9.64;43.32
6423;BME280;3244;42.708;23.288;2023-02-03T10:34:14;95566.09;;;9.67;43.20
6423;BME280;3244;42.708;23.288;2023-02-03T10:36:52;95560.22;;;9.26;43.72
6423;BME280;3244;42.708;23.288;2023-02-03T10:39:26;95562.88;;;8.75;44.74
6423;BME280;3244;42.708;23.288;2023-02-03T10:41:55;95555.78;;;8.48;45.75
6423;BME280;3244;42.708;23.288;2023-02-03T10:44:30;95569.53;;;8.35;46.04
6423;BME280;3244;42.708;23.288;2023-02-03T10:46:57;95571.38;;;8.22;45.00
6423;BME280;3244;42.708;23.288;2023-02-03T10:49:25;95574.31;;;7.98;45.54
6423;BME280;3244;42.708;23.288;2023-02-03T10:51:57;95579.75;;;7.72;44.91
6423;BME280;3244;42.708;23.288;2023-02-03T10:54:31;95577.56;;;7.47;46.07
6423;BME280;3244;42.708;23.288;2023-02-03T10:57:02;95587.94;;;7.26;46.34
6423;BME280;3244;42.708;23.288;2023-02-03T10:59:34;95583.50;;;7.43;46.37
6423;BME280;3244;42.708;23.288;2023-02-03T11:02:07;95576.59;;;7.58;46.14
6423;BME280;3244;42.708;23.288;2023-02-03T11:04:34;95571.41;;;7.67;44.91
6423;BME280;3244;42.708;23.288;2023-02-03T11:07:02;95557.75;;;7.77;44.13
6423;BME280;3244;42.708;23.288;2023-02-03T11:09:34;95558.16;;;8.05;43.61
6423;BME280;3244;42.708;23.288;2023-02-03T11:12:05;95556.66;;;8.45;43.87
6423;BME280;3244;42.708;23.288;2023-02-03T11:14:37;95571.34;;;8.74;41.02
6423;BME280;3244;42.708;23.288;2023-02-03T11:17:08;95570.78;;;9.05;39.29
6423;BME280;3244;42.708;23.288;2023-02-03T11:19:37;95562.72;;;9.28;38.96
6423;BME280;3244;42.708;23.288;2023-02-03T11:22:05;95557.13;;;9.52;38.01
6423;BME280;3244;42.708;23.288;2023-02-03T11:24:36;95565.97;;;9.73;38.12
6423;BME280;3244;42.708;23.288;2023-02-03T11:27:05;95549.84;;;9.75;39.50
6423;BME280;3244;42.708;23.288;2023-02-03T11:29:34;95547.47;;;9.68;39.38
6423;BME280;3244;42.708;23.288;2023-02-03T11:32:12;95539.84;;;9.68;39.42
6423;BME280;3244;42.708;23.288;2023-02-03T11:34:46;95536.91;;;9.47;38.17
6423;BME280;3244;42.708;23.288;2023-02-03T11:37:27;95535.16;;;9.11;39.17
6423;BME280;3244;42.708;23.288;2023-02-03T11:39:56;95536.72;;;8.75;39.66
6423;BME280;3244;42.708;23.288;2023-02-03T11:42:23;95503.06;;;8.20;40.48
6423;BME280;3244;42.708;23.288;2023-02-03T11:44:50;95540.03;;;8.31;40.28
6423;BME280;3244;42.708;23.288;2023-02-03T11:47:18;95534.56;;;8.04;40.19
6423;BME280;3244;42.708;23.288;2023-02-03T11:50:09;95536.38;;;7.95;39.08
6423;BME280;3244;42.708;23.288;2023-02-03T11:52:49;95528.44;;;7.64;39.86
6423;BME280;3244;42.708;23.288;2023-02-03T11:55:29;95526.03;;;7.55;41.34
6423;BME280;3244;42.708;23.288;2023-02-03T11:58:09;95532.84;;;7.49;40.68
6423;BME280;3244;42.708;23.288;2023-02-03T12:00:46;95539.16;;;7.18;41.62
6423;BME280;3244;42.708;23.288;2023-02-03T12:03:33;95537.59;;;7.11;39.90
6423;BME280;3244;42.708;23.288;2023-02-03T12:06:14;95514.78;;;7.17;39.86
6423;BME280;3244;42.708;23.288;2023-02-03T12:09:15;95525.66;;;7.22;40.92
6423;BME280;3244;42.708;23.288;2023-02-03T12:12:06;95528.81;;;7.39;41.53
6423;BME280;3244;42.708;23.288;2023-02-03T12:14:48;95512.69;;;7.43;39.79
6423;BME280;3244;42.708;23.288;2023-02-03T12:17:47;95522.63;;;7.59;38.45
6423;BME280;3244;42.708;23.288;2023-02-03T12:20:27;95519.06;;;7.69;38.21
6423;BME280;3244;42.708;23.288;2023-02-03T12:23:04;95526.50;;;7.81;37.39
6423;BME280;3244;42.708;23.288;2023-02-03T12:25:42;95518.84;;;7.84;38.33
6423;BME280;3244;42.708;23.288;2023-02-03T12:28:24;95520.28;;;8.00;39.53
6423;BME280;3244;42.708;23.288;2023-02-03T12:31:00;95517.69;;;8.05;38.55
6423;BME280;3244;42.708;23.288;2023-02-03T12:33:32;95519.28;;;8.10;38.63
6423;BME280;3244;42.708;23.288;2023-02-03T12:36:07;95527.16;;;7.92;39.22
6423;BME280;3244;42.708;23.288;2023-02-03T12:38:39;95517.38;;;7.71;39.98
6423;BME280;3244;42.708;23.288;2023-02-03T12:41:11;95514.28;;;7.50;40.39
6423;BME280;3244;42.708;23.288;2023-02-03T12:43:41;95518.06;;;7.22;40.82
6423;BME280;3244;42.708;23.288;2023-02-03T12:46:16;95513.88;;;7.20;41.62
6423;BME280;3244;42.708;23.288;2023-02-03T12:48:48;95518.91;;;7.21;41.49
6423;BME280;3244;42.708;23.288;2023-02-03T12:51:27;95510.50;;;7.19;41.26
6423;BME280;3244;42.708;23.288;2023-02-03T12:54:01;95486.16;;;7.15;41.93
6423;BME280;3244;42.708;23.288;2023-02-03T12:56:33;95505.38;;;7.27;42.09
6423;BME280;3244;42.708;23.288;2023-02-03T12:59:07;95496.00;;;7.33;42.20
6423;BME280;3244;42.708;23.288;2023-02-03T13:01:43;95502.44;;;7.56;42.70
6423;BME280;3244;42.708;23.288;2023-02-03T13:04:17;95503.34;;;7.50;43.85
6423;BME280;3244;42.708;23.288;2023-02-03T13:06:53;95490.72;;;7.48;43.84
6423;BME280;3244;42.708;23.288;2023-02-03T13:09:27;95498.53;;;7.33;43.86
6423;BME280;3244;42.708;23.288;2023-02-03T13:12:02;95496.09;;;7.27;42.98
6423;BME280;3244;42.708;23.288;2023-02-03T13:14:34;95494.50;;;7.18;43.99
6423;BME280;3244;42.708;23.288;2023-02-03T13:17:07;95501.53;;;6.97;43.97
6423;BME280;3244;42.708;23.288;2023-02-03T13:19:41;95491.88;;;6.62;45.13
6423;BME280;3244;42.708;23.288;2023-02-03T13:22:13;95490.53;;;6.29;45.56
6423;BME280;3244;42.708;23.288;2023-02-03T13:24:43;95510.72;;;6.32;46.16
6423;BME280;3244;42.708;23.288;2023-02-03T13:27:30;95506.59;;;6.23;48.28
6423;BME280;3244;42.708;23.288;2023-02-03T13:30:24;95507.34;;;6.31;47.39
6423;BME280;3244;42.708;23.288;2023-02-03T13:33:17;95506.41;;;6.41;47.55
6423;BME280;3244;42.708;23.288;2023-02-03T13:35:57;95497.94;;;6.45;47.12
6423;BME280;3244;42.708;23.288;2023-02-03T13:38:45;95500.56;;;6.38;46.28
6423;BME280;3244;42.708;23.288;2023-02-03T13:41:25;95499.97;;;6.13;46.93
6423;BME280;3244;42.708;23.288;2023-02-03T13:43:56;95504.25;;;6.05;47.10